createdAt,value
2023-09-20T00:02:24.618Z,76.03
2023-09-20T00:05:01.491Z,76.05
2023-09-20T00:07:34.594Z,76.45
2023-09-20T00:10:13.529Z,76.71
2023-09-20T00:12:46.535Z,76.81
2023-09-20T00:15:19.372Z,76.68
2023-09-20T00:17:53.539Z,76.91
2023-09-20T00:20:26.556Z,77.01
2023-09-20T00:22:59.721Z,77.36
2023-09-20T00:25:52.784Z,77.25
2023-09-20T00:28:25.337Z,76.90
2023-09-20T00:30:58.514Z,77.10
2023-09-20T00:33:31.180Z,77.30
2023-09-20T00:36:03.754Z,77.65
2023-09-20T00:38:36.788Z,77.57
2023-09-20T00:41:09.809Z,77.72
2023-09-20T00:43:42.399Z,77.95
2023-09-20T00:46:34.893Z,77.97
2023-09-20T00:49:08.086Z,78.13
2023-09-20T00:51:41.631Z,78.20
2023-09-20T00:54:18.134Z,78.16
2023-09-20T00:56:50.947Z,78.62
2023-09-20T00:59:24.290Z,78.57
2023-09-20T01:01:58.142Z,78.70
2023-09-20T01:04:32.009Z,78.61
2023-09-20T01:07:04.396Z,78.72
2023-09-20T01:09:58.141Z,78.56
2023-09-20T01:12:31.062Z,78.88
2023-09-20T01:15:03.707Z,79.01
2023-09-20T01:17:47.835Z,79.12
2023-09-20T01:20:21.814Z,79.46
2023-09-20T01:22:55.752Z,79.41
2023-09-20T01:25:30.991Z,79.47
2023-09-20T01:28:06.162Z,79.40
2023-09-20T01:30:40.480Z,79.49
2023-09-20T01:33:14.606Z,79.68
2023-09-20T01:36:07.860Z,79.75
2023-09-20T01:38:41.795Z,79.88
2023-09-20T01:41:13.172Z,79.85
2023-09-20T01:44:09.263Z,79.83
2023-09-20T01:46:43.070Z,79.85
2023-09-20T01:49:15.036Z,79.75
2023-09-20T01:51:47.585Z,79.75
2023-09-20T01:54:20.318Z,79.61
2023-09-20T01:56:53.275Z,79.73
2023-09-20T01:59:25.776Z,80.14
2023-09-20T02:01:58.343Z,80.12
2023-09-20T02:04:33.155Z,80.23
2023-09-20T02:07:03.930Z,80.15
2023-09-20T02:09:37.100Z,80.15
2023-09-20T02:12:09.919Z,80.10
2023-09-20T02:14:42.944Z,80.47
2023-09-20T02:17:17.217Z,80.79
2023-09-20T02:19:51.418Z,80.60
2023-09-20T02:22:23.872Z,80.67
2023-09-20T02:24:56.571Z,80.67
2023-09-20T02:27:32.669Z,80.51
2023-09-20T02:30:06.328Z,80.60
2023-09-20T02:32:39.781Z,80.84
2023-09-20T02:35:12.821Z,81.11
2023-09-20T02:37:47.435Z,81.08
2023-09-20T02:40:21.626Z,81.01
2023-09-20T02:42:55.777Z,81.19
2023-09-20T02:45:30.994Z,81.26
2023-09-20T02:48:06.405Z,80.97
2023-09-20T02:50:43.049Z,80.69
2023-09-20T02:53:16.845Z,80.77
2023-09-20T02:55:49.915Z,81.09
2023-09-20T02:58:22.890Z,81.16
2023-09-20T03:00:55.264Z,81.15
2023-09-20T03:03:29.602Z,81.17
2023-09-20T03:06:11.486Z,81.14
2023-09-20T03:08:46.426Z,81.39
2023-09-20T03:11:29.327Z,81.16
2023-09-20T03:14:04.881Z,81.04
2023-09-20T03:16:38.051Z,80.92
2023-09-20T03:19:13.069Z,81.04
2023-09-20T03:21:48.655Z,81.43
2023-09-20T03:24:21.277Z,81.48
2023-09-20T03:26:53.730Z,81.66
2023-09-20T03:29:27.789Z,81.69
2023-09-20T03:32:01.999Z,81.80
2023-09-20T03:34:35.761Z,82.01
2023-09-20T03:37:11.071Z,82.52
2023-09-20T03:39:44.478Z,82.53
2023-09-20T03:42:16.851Z,82.45
2023-09-20T03:44:49.739Z,82.53
2023-09-20T03:47:22.249Z,82.47
2023-09-20T03:49:56.042Z,82.23
2023-09-20T03:52:28.336Z,82.77
2023-09-20T03:55:00.835Z,82.73
2023-09-20T03:57:33.464Z,82.67
2023-09-20T04:00:11.394Z,82.76
2023-09-20T04:02:49.770Z,82.67
2023-09-20T04:05:38.934Z,82.98
2023-09-20T04:08:18.456Z,83.23
2023-09-20T04:10:52.208Z,83.10
2023-09-20T04:13:24.688Z,83.54
2023-09-20T04:15:57.224Z,83.66
2023-09-20T04:18:29.937Z,84.02
2023-09-20T04:21:03.847Z,84.03
2023-09-20T04:23:36.890Z,83.79
2023-09-20T04:26:09.527Z,83.66
2023-09-20T04:28:42.309Z,83.76
2023-09-20T04:31:15.452Z,83.94
2023-09-20T04:33:48.725Z,84.09
2023-09-20T04:36:22.251Z,84.01
2023-09-20T04:38:54.992Z,84.20
2023-09-20T04:41:28.448Z,84.14
2023-09-20T04:44:01.015Z,84.26
2023-09-20T04:46:37.264Z,84.36
2023-09-20T04:49:11.487Z,84.53
2023-09-20T04:52:04.511Z,84.72
2023-09-20T04:54:36.964Z,84.46
2023-09-20T04:57:09.667Z,84.70
2023-09-20T04:59:42.301Z,85.21
2023-09-20T05:02:15.877Z,84.91
2023-09-20T05:04:48.895Z,85.17
2023-09-20T05:07:45.090Z,85.20
2023-09-20T05:10:18.149Z,85.05
2023-09-20T05:12:50.879Z,84.70
2023-09-20T05:15:24.466Z,84.49
2023-09-20T05:17:57.773Z,84.41
2023-09-20T05:20:32.430Z,84.45
2023-09-20T05:23:06.032Z,84.69
2023-09-20T05:25:39.518Z,84.46
2023-09-20T05:28:11.997Z,84.83
2023-09-20T05:30:48.082Z,84.86
2023-09-20T05:33:22.383Z,85.09
2023-09-20T05:35:54.858Z,85.19
2023-09-20T05:38:27.775Z,85.09
2023-09-20T05:41:00.136Z,85.24
2023-09-20T05:43:33.346Z,85.45
2023-09-20T05:46:10.167Z,85.10
2023-09-20T05:48:47.780Z,84.95
2023-09-20T05:51:22.116Z,85.01
2023-09-20T05:53:54.433Z,85.26
2023-09-20T05:56:27.577Z,85.20
2023-09-20T05:59:01.770Z,85.57
2023-09-20T06:01:34.563Z,85.77
2023-09-20T06:04:08.904Z,85.36
2023-09-20T06:06:42.041Z,85.45
2023-09-20T06:09:15.584Z,84.91
2023-09-20T06:11:47.977Z,85.28
2023-09-20T06:14:20.627Z,85.44
2023-09-20T06:16:54.632Z,85.10
2023-09-20T06:19:32.138Z,84.75
2023-09-20T06:22:04.826Z,84.82
2023-09-20T06:24:37.254Z,84.39
2023-09-20T06:27:10.454Z,84.48
2023-09-20T06:29:43.692Z,84.36
2023-09-20T06:32:18.072Z,84.13
2023-09-20T06:34:58.998Z,84.35
2023-09-20T06:37:32.052Z,84.24
2023-09-20T06:40:05.309Z,84.22
2023-09-20T06:42:38.527Z,84.16
2023-09-20T06:45:14.136Z,84.12
2023-09-20T06:47:47.046Z,84.05
2023-09-20T06:50:19.814Z,83.85
2023-09-20T06:52:54.923Z,83.51
2023-09-20T06:55:27.470Z,82.96
2023-09-20T06:58:17.322Z,83.02
2023-09-20T07:00:52.929Z,82.75
2023-09-20T07:03:25.938Z,82.81
2023-09-20T07:05:58.513Z,82.74
2023-09-20T07:08:35.977Z,82.35
2023-09-20T07:11:08.745Z,82.18
2023-09-20T07:14:06.861Z,81.90
2023-09-20T07:16:40.621Z,81.80
2023-09-20T07:19:18.600Z,81.73
2023-09-20T07:21:51.481Z,81.32
2023-09-20T07:24:25.688Z,81.03
2023-09-20T07:26:59.821Z,80.89
2023-09-20T07:29:32.359Z,80.55
2023-09-20T07:32:05.807Z,80.16
2023-09-20T07:34:38.647Z,79.82
2023-09-20T07:37:14.886Z,79.26
2023-09-20T07:40:08.323Z,78.80
2023-09-20T07:42:41.821Z,78.18
2023-09-20T07:45:14.624Z,77.87
2023-09-20T07:47:46.975Z,77.98
2023-09-20T07:50:19.510Z,77.90
2023-09-20T07:52:52.261Z,77.72
2023-09-20T07:55:24.686Z,77.01
2023-09-20T07:57:59.363Z,76.91
2023-09-20T08:00:32.569Z,76.87
2023-09-20T08:03:07.145Z,76.56
2023-09-20T08:05:40.178Z,75.54
2023-09-20T08:08:13.022Z,75.52
2023-09-20T08:10:55.232Z,75.21
2023-09-20T08:13:53.524Z,74.95
2023-09-20T08:16:41.765Z,74.42
2023-09-20T08:19:23.757Z,74.38
2023-09-20T08:21:56.693Z,74.15
2023-09-20T08:24:46.764Z,73.59
2023-09-20T08:27:36.757Z,72.79
2023-09-20T08:30:28.384Z,72.71
2023-09-20T08:33:18.508Z,72.70
2023-09-20T08:36:08.640Z,72.39
2023-09-20T08:38:59.311Z,71.85
2023-09-20T08:41:49.441Z,71.69
2023-09-20T08:44:40.926Z,71.18
2023-09-20T08:47:31.141Z,71.24
2023-09-20T08:50:21.261Z,70.38
2023-09-20T08:53:12.005Z,70.00
2023-09-20T08:56:02.533Z,69.02
2023-09-20T08:58:53.202Z,68.11
2023-09-20T09:01:26.215Z,67.86
2023-09-20T09:04:03.252Z,67.67
2023-09-20T09:06:36.071Z,67.32
2023-09-20T09:09:10.001Z,67.03
2023-09-20T09:11:46.695Z,66.56
2023-09-20T09:14:19.701Z,66.28
2023-09-20T09:16:52.173Z,65.55
2023-09-20T09:19:24.574Z,65.32
2023-09-20T09:22:17.428Z,65.14
2023-09-20T09:24:51.182Z,65.02
2023-09-20T09:27:24.281Z,63.84
2023-09-20T09:29:56.817Z,63.24
2023-09-20T09:32:34.296Z,62.75
2023-09-20T09:35:09.554Z,63.65
2023-09-20T09:37:43.667Z,62.57
2023-09-20T09:40:16.455Z,60.86
2023-09-20T09:42:49.462Z,60.93
2023-09-20T09:45:33.441Z,60.97
2023-09-20T09:48:08.970Z,61.03
2023-09-20T09:50:41.927Z,60.76
2023-09-20T09:53:17.552Z,61.03
2023-09-20T09:55:53.680Z,60.55
2023-09-20T09:58:24.688Z,58.96
2023-09-20T10:00:59.108Z,59.39
2023-09-20T10:03:52.753Z,58.92
2023-09-20T10:06:29.415Z,59.38
2023-09-20T10:09:06.334Z,58.32
2023-09-20T10:11:39.991Z,58.05
2023-09-20T10:14:30.923Z,58.15
2023-09-20T10:17:07.413Z,58.36
2023-09-20T10:19:41.988Z,57.97
2023-09-20T10:22:15.725Z,57.71
2023-09-20T10:24:54.923Z,57.10
2023-09-20T10:27:31.527Z,56.47
2023-09-20T10:30:10.553Z,56.15
2023-09-20T10:32:58.641Z,55.29
2023-09-20T10:35:32.198Z,55.70
2023-09-20T10:38:31.857Z,55.42
2023-09-20T10:41:09.016Z,54.96
2023-09-20T10:44:03.410Z,55.02
2023-09-20T10:46:39.278Z,54.73
2023-09-20T10:49:15.705Z,54.19
2023-09-20T10:51:54.421Z,54.30
2023-09-20T10:54:31.275Z,53.57
2023-09-20T10:57:11.448Z,53.52
2023-09-20T10:59:47.230Z,54.08
2023-09-20T11:02:20.268Z,53.23
2023-09-20T11:04:52.737Z,53.48
2023-09-20T11:07:27.558Z,53.58
2023-09-20T11:10:00.014Z,53.72
2023-09-20T11:12:33.410Z,53.57
2023-09-20T11:15:07.247Z,53.22
2023-09-20T11:17:40.328Z,52.59
2023-09-20T11:20:15.406Z,52.61
2023-09-20T11:22:50.726Z,52.43
2023-09-20T11:25:23.715Z,52.09
2023-09-20T11:27:57.259Z,51.92
2023-09-20T11:30:30.214Z,52.18
2023-09-20T11:33:03.657Z,51.87
2023-09-20T11:35:41.391Z,51.72
2023-09-20T11:38:16.740Z,51.01
2023-09-20T11:40:53.167Z,50.52
2023-09-20T11:43:29.751Z,50.30
2023-09-20T11:46:06.377Z,50.03
2023-09-20T11:49:22.256Z,49.55
2023-09-20T11:51:55.694Z,49.51
2023-09-20T11:54:30.433Z,47.75
2023-09-20T11:57:24.459Z,48.25
2023-09-20T11:59:56.935Z,48.73
2023-09-20T12:02:30.162Z,48.26
2023-09-20T12:05:01.086Z,48.56
2023-09-20T12:07:34.570Z,48.75
2023-09-20T12:10:27.886Z,48.09
2023-09-20T12:13:00.877Z,47.60
2023-09-20T12:15:34.602Z,48.04
2023-09-20T12:18:09.631Z,47.67
2023-09-20T12:20:42.248Z,47.60
2023-09-20T12:23:15.727Z,47.54
2023-09-20T12:25:48.365Z,47.61
2023-09-20T12:28:21.077Z,46.99
2023-09-20T12:30:54.139Z,46.88
2023-09-20T12:33:27.182Z,46.87
2023-09-20T12:35:58.263Z,45.98
2023-09-20T12:38:32.544Z,45.26
2023-09-20T12:41:04.926Z,45.30
2023-09-20T12:43:38.967Z,44.36
2023-09-20T12:46:11.994Z,43.71
2023-09-20T12:48:46.154Z,44.40
2023-09-20T12:51:18.745Z,44.42
2023-09-20T12:53:51.231Z,44.78
2023-09-20T12:56:24.061Z,45.22
2023-09-20T12:58:57.762Z,45.24
2023-09-20T13:01:33.311Z,45.35
2023-09-20T13:04:06.281Z,45.06
2023-09-20T13:06:39.811Z,44.48
2023-09-20T13:09:15.818Z,43.80
2023-09-20T13:11:48.538Z,44.00
2023-09-20T13:14:22.683Z,43.94
2023-09-20T13:16:54.992Z,43.46
2023-09-20T13:19:27.848Z,43.83
2023-09-20T13:22:01.622Z,43.64
2023-09-20T13:24:34.451Z,43.66
2023-09-20T13:27:07.625Z,43.48
2023-09-20T13:29:40.124Z,43.21
2023-09-20T13:32:12.782Z,42.85
2023-09-20T13:34:45.644Z,43.30
2023-09-20T13:37:19.366Z,43.48
2023-09-20T13:39:52.158Z,43.43
2023-09-20T13:42:25.740Z,43.35
2023-09-20T13:44:56.625Z,43.24
2023-09-20T13:47:30.175Z,43.04
2023-09-20T13:50:05.731Z,43.41
2023-09-20T13:52:40.180Z,43.58
2023-09-20T13:55:15.552Z,42.64
2023-09-20T13:57:50.140Z,42.44
2023-09-20T14:00:22.933Z,41.93
2023-09-20T14:02:55.960Z,42.00
2023-09-20T14:05:28.894Z,41.80
2023-09-20T14:08:01.843Z,41.42
2023-09-20T14:10:35.810Z,41.64
2023-09-20T14:13:09.136Z,41.63
2023-09-20T14:15:41.805Z,41.35
2023-09-20T14:18:14.360Z,41.17
2023-09-20T14:20:49.106Z,41.32
2023-09-20T14:23:23.347Z,41.17
2023-09-20T14:25:56.207Z,40.79
2023-09-20T14:28:30.983Z,40.14
2023-09-20T14:31:03.821Z,40.52
2023-09-20T14:33:36.377Z,40.27
2023-09-20T14:36:12.681Z,40.35
2023-09-20T14:38:45.327Z,40.46
2023-09-20T14:41:18.280Z,40.09
2023-09-20T14:43:50.667Z,40.20
2023-09-20T14:46:23.383Z,40.42
2023-09-20T14:48:56.248Z,39.94
2023-09-20T14:51:28.775Z,39.96
2023-09-20T14:54:01.748Z,40.14
2023-09-20T14:56:34.330Z,39.91
2023-09-20T14:59:06.919Z,40.01
2023-09-20T15:01:41.186Z,40.05
2023-09-20T15:04:13.603Z,40.58
2023-09-20T15:06:46.145Z,40.45
2023-09-20T15:09:18.444Z,40.36
2023-09-20T15:11:51.120Z,40.46
2023-09-20T15:14:23.581Z,40.23
2023-09-20T15:17:16.471Z,39.83
2023-09-20T15:19:50.225Z,39.44
2023-09-20T15:22:25.116Z,39.12
2023-09-20T15:24:59.256Z,39.14
2023-09-20T15:27:34.378Z,39.39
2023-09-20T15:30:08.366Z,39.40
2023-09-20T15:32:42.849Z,39.29
2023-09-20T15:35:15.587Z,39.45
2023-09-20T15:37:49.505Z,39.65
2023-09-20T15:40:20.776Z,39.38
2023-09-20T15:42:56.751Z,39.69
2023-09-20T15:45:30.917Z,39.38
2023-09-20T15:48:03.317Z,39.21
2023-09-20T15:50:38.494Z,39.50
2023-09-20T15:53:15.563Z,39.74
2023-09-20T15:55:47.811Z,39.79
2023-09-20T15:58:20.236Z,39.75
2023-09-20T16:00:52.719Z,40.22
2023-09-20T16:03:28.180Z,40.69
2023-09-20T16:06:00.970Z,41.26
2023-09-20T16:08:34.287Z,41.80
2023-09-20T16:11:06.709Z,41.90
2023-09-20T16:13:39.253Z,41.28
2023-09-20T16:16:14.806Z,41.19
2023-09-20T16:18:48.553Z,41.85
2023-09-20T16:21:22.842Z,42.65
2023-09-20T16:23:57.378Z,43.16
2023-09-20T16:26:29.809Z,43.43
2023-09-20T16:29:02.498Z,43.99
2023-09-20T16:31:35.413Z,44.19
2023-09-20T16:34:10.141Z,44.58
2023-09-20T16:36:42.533Z,44.86
2023-09-20T16:39:14.858Z,45.30
2023-09-20T16:41:47.388Z,45.61
2023-09-20T16:44:19.943Z,46.03
2023-09-20T16:46:52.843Z,46.20
2023-09-20T16:49:25.922Z,46.56
2023-09-20T16:52:00.614Z,47.09
2023-09-20T16:54:33.293Z,47.62
2023-09-20T16:57:05.966Z,48.04
2023-09-20T16:59:38.609Z,48.50
2023-09-20T17:02:11.743Z,48.73
2023-09-20T17:04:44.153Z,49.12
2023-09-20T17:07:17.142Z,49.10
2023-09-20T17:09:49.991Z,49.12
2023-09-20T17:12:22.492Z,49.27
2023-09-20T17:14:54.993Z,49.61
2023-09-20T17:17:27.919Z,50.03
2023-09-20T17:20:02.817Z,49.81
2023-09-20T17:22:35.301Z,50.17
2023-09-20T17:25:09.113Z,50.20
2023-09-20T17:27:43.150Z,50.38
2023-09-20T17:30:18.635Z,50.43
2023-09-20T17:32:51.767Z,50.88
2023-09-20T17:35:24.632Z,50.69
2023-09-20T17:37:58.431Z,50.83
2023-09-20T17:40:33.592Z,51.22
2023-09-20T17:43:06.569Z,51.44
2023-09-20T17:45:42.175Z,51.69
2023-09-20T17:48:14.729Z,51.95
2023-09-20T17:50:49.314Z,52.29
2023-09-20T17:53:23.934Z,52.76
2023-09-20T17:56:01.473Z,53.07
2023-09-20T17:58:36.061Z,53.26
2023-09-20T18:01:09.439Z,53.64
2023-09-20T18:03:40.377Z,53.89
2023-09-20T18:06:14.923Z,54.20
2023-09-20T18:09:07.957Z,54.51
2023-09-20T18:12:00.629Z,54.85
2023-09-20T18:14:33.164Z,54.88
2023-09-20T18:17:05.512Z,55.09
2023-09-20T18:19:39.414Z,55.37
2023-09-20T18:22:14.523Z,55.56
2023-09-20T18:24:47.442Z,56.04
2023-09-20T18:27:41.866Z,56.48
2023-09-20T18:30:19.290Z,56.88
2023-09-20T18:32:57.648Z,56.81
2023-09-20T18:35:30.797Z,56.87
2023-09-20T18:38:03.213Z,57.10
2023-09-20T18:40:35.758Z,57.37
2023-09-20T18:43:51.085Z,57.68
2023-09-20T18:46:29.116Z,57.80
2023-09-20T18:49:03.123Z,58.04
2023-09-20T18:52:17.143Z,58.41
2023-09-20T18:54:51.059Z,58.47
2023-09-20T18:57:26.991Z,58.72
2023-09-20T19:00:02.033Z,59.23
2023-09-20T19:02:36.867Z,59.65
2023-09-20T19:05:11.131Z,59.75
2023-09-20T19:07:45.429Z,59.84
2023-09-20T19:10:19.236Z,60.19
2023-09-20T19:12:52.942Z,60.26
2023-09-20T19:15:24.034Z,60.40
2023-09-20T19:17:56.815Z,60.49
2023-09-20T19:20:37.868Z,60.81
2023-09-20T19:23:14.008Z,60.88
2023-09-20T19:25:47.653Z,60.97
2023-09-20T19:28:20.719Z,60.94
2023-09-20T19:30:55.256Z,61.05
2023-09-20T19:33:47.968Z,61.13
2023-09-20T19:36:41.749Z,61.31
2023-09-20T19:39:16.533Z,61.56
2023-09-20T19:41:48.808Z,61.43
2023-09-20T19:44:21.205Z,61.60
2023-09-20T19:46:53.678Z,61.97
2023-09-20T19:49:27.204Z,62.02
2023-09-20T19:52:00.299Z,62.26
2023-09-20T19:54:34.213Z,62.55
2023-09-20T19:57:07.275Z,62.79
2023-09-20T19:59:40.135Z,62.96
2023-09-20T20:02:14.908Z,63.00
2023-09-20T20:04:47.480Z,63.42
2023-09-20T20:07:27.788Z,63.82
2023-09-20T20:10:02.493Z,64.14
2023-09-20T20:12:35.129Z,64.27
2023-09-20T20:15:08.994Z,64.67
2023-09-20T20:17:44.924Z,64.96
2023-09-20T20:20:21.156Z,65.30
2023-09-20T20:22:56.386Z,65.60
2023-09-20T20:25:35.809Z,65.65
2023-09-20T20:28:13.745Z,65.93
2023-09-20T20:30:47.180Z,66.15
2023-09-20T20:33:20.448Z,66.36
2023-09-20T20:35:53.888Z,66.50
2023-09-20T20:38:26.246Z,66.30
2023-09-20T20:40:58.629Z,66.43
2023-09-20T20:43:31.517Z,66.57
2023-09-20T20:46:04.336Z,66.66
2023-09-20T20:48:38.535Z,66.94
2023-09-20T20:51:17.574Z,67.11
2023-09-20T20:53:50.193Z,67.19
2023-09-20T20:56:29.763Z,67.38
2023-09-20T20:59:02.571Z,67.56
2023-09-20T21:01:37.602Z,67.61
2023-09-20T21:04:10.948Z,67.68
2023-09-20T21:06:45.536Z,67.78
2023-09-20T21:09:38.089Z,67.88
2023-09-20T21:12:12.641Z,67.98
2023-09-20T21:14:46.106Z,68.16
2023-09-20T21:17:18.479Z,68.24
2023-09-20T21:19:51.422Z,68.39
2023-09-20T21:22:26.635Z,68.39
2023-09-20T21:24:59.446Z,68.47
2023-09-20T21:27:31.978Z,68.49
2023-09-20T21:30:06.584Z,68.80
2023-09-20T21:32:39.095Z,68.90
2023-09-20T21:35:12.560Z,68.96
2023-09-20T21:37:45.239Z,69.27
2023-09-20T21:40:19.477Z,69.36
2023-09-20T21:42:52.073Z,69.06
2023-09-20T21:45:25.705Z,69.07
2023-09-20T21:47:58.510Z,69.08
2023-09-20T21:50:32.472Z,69.00
2023-09-20T21:53:05.793Z,69.20
2023-09-20T21:55:38.284Z,69.11
2023-09-20T21:58:11.153Z,69.35
2023-09-20T22:00:43.614Z,69.45
2023-09-20T22:03:16.124Z,69.42
2023-09-20T22:06:10.072Z,69.65
2023-09-20T22:08:43.056Z,69.82
2023-09-20T22:11:16.263Z,70.04
2023-09-20T22:13:49.953Z,70.23
2023-09-20T22:16:22.344Z,70.49
2023-09-20T22:18:59.411Z,70.34
2023-09-20T22:21:31.947Z,70.66
2023-09-20T22:24:06.580Z,70.81
2023-09-20T22:26:39.324Z,70.82
2023-09-20T22:29:11.964Z,70.88
2023-09-20T22:31:44.373Z,71.19
2023-09-20T22:34:17.829Z,71.15
2023-09-20T22:36:51.663Z,71.19
2023-09-20T22:39:23.767Z,71.17
2023-09-20T22:41:56.162Z,71.24
2023-09-20T22:44:29.247Z,71.47
2023-09-20T22:47:01.524Z,71.54
2023-09-20T22:49:35.470Z,71.85
2023-09-20T22:52:08.129Z,71.76
2023-09-20T22:54:40.552Z,71.99
2023-09-20T22:57:13.586Z,72.05
2023-09-20T22:59:46.133Z,72.19
2023-09-20T23:02:21.443Z,72.28
2023-09-20T23:04:56.360Z,72.25
2023-09-20T23:07:30.676Z,72.34
2023-09-20T23:10:06.329Z,72.38
2023-09-20T23:12:39.194Z,72.85
2023-09-20T23:15:13.741Z,73.02
2023-09-20T23:17:50.332Z,73.15
2023-09-20T23:20:32.412Z,73.28
2023-09-20T23:23:06.638Z,73.44
2023-09-20T23:25:40.565Z,73.57
2023-09-20T23:28:11.692Z,73.61
2023-09-20T23:30:46.179Z,73.92
2023-09-20T23:33:22.868Z,73.97
2023-09-20T23:35:58.073Z,74.09
2023-09-20T23:38:33.742Z,74.12
2023-09-20T23:41:15.758Z,74.31
2023-09-20T23:43:52.134Z,74.68
2023-09-20T23:46:27.756Z,74.74
2023-09-20T23:49:06.133Z,74.78
2023-09-20T23:51:39.071Z,74.74
2023-09-20T23:54:11.705Z,74.87
2023-09-20T23:56:44.343Z,75.01
2023-09-20T23:59:16.803Z,75.27
